createdAt,value
2022-09-20T00:00:50.673Z,9.26
2022-09-20T00:03:55.460Z,9.29
2022-09-20T00:06:58.456Z,9.32
2022-09-20T00:10:02.563Z,9.31
2022-09-20T00:13:06.152Z,9.30
2022-09-20T00:16:11.029Z,9.34
2022-09-20T00:19:19.723Z,9.36
2022-09-20T00:22:22.419Z,9.29
2022-09-20T00:25:26.560Z,9.41
2022-09-20T00:28:30.183Z,9.46
2022-09-20T00:31:32.871Z,9.53
2022-09-20T00:34:53.120Z,9.46
2022-09-20T00:37:55.870Z,9.47
2022-09-20T00:41:00.444Z,9.48
2022-09-20T00:44:04.011Z,9.51
2022-09-20T00:47:14.147Z,9.53
2022-09-20T00:50:27.818Z,9.53
2022-09-20T00:53:34.199Z,9.56
2022-09-20T00:56:44.006Z,9.57
2022-09-20T00:59:50.273Z,9.61
2022-09-20T01:02:58.185Z,9.64
2022-09-20T01:06:05.383Z,9.63
2022-09-20T01:09:08.769Z,9.61
2022-09-20T01:12:17.416Z,9.60
2022-09-20T01:15:20.940Z,9.63
2022-09-20T01:18:25.287Z,9.56
2022-09-20T01:21:29.728Z,9.56
2022-09-20T01:24:40.599Z,9.50
2022-09-20T01:27:47.167Z,9.52
2022-09-20T01:30:59.624Z,9.46
2022-09-20T01:34:09.510Z,9.40
2022-09-20T01:37:19.820Z,9.39
2022-09-20T01:40:31.787Z,9.35
2022-09-20T01:43:42.136Z,9.34
2022-09-20T01:46:47.147Z,9.34
2022-09-20T01:49:57.294Z,9.30
2022-09-20T01:53:17.944Z,9.33
2022-09-20T01:56:52.103Z,9.33
2022-09-20T02:00:06.550Z,9.35
2022-09-20T02:03:55.607Z,9.35
2022-09-20T02:07:18.512Z,9.30
2022-09-20T02:10:42.377Z,9.25
2022-09-20T02:14:12.340Z,9.22
2022-09-20T02:17:25.128Z,9.18
2022-09-20T02:20:34.377Z,9.13
2022-09-20T02:23:47.710Z,9.10
2022-09-20T02:27:08.094Z,9.08
2022-09-20T02:30:23.973Z,9.05
2022-09-20T02:33:49.972Z,8.96
2022-09-20T02:37:07.972Z,9.04
2022-09-20T02:40:27.548Z,9.11
2022-09-20T02:43:38.062Z,9.19
2022-09-20T02:46:49.393Z,9.23
2022-09-20T02:50:02.122Z,9.25
2022-09-20T02:53:20.031Z,9.28
2022-09-20T02:56:32.701Z,9.18
2022-09-20T02:59:44.914Z,9.04
2022-09-20T03:02:58.603Z,8.96
2022-09-20T03:06:10.406Z,8.86
2022-09-20T03:09:25.015Z,8.75
2022-09-20T03:12:36.940Z,8.69
2022-09-20T03:15:53.315Z,8.60
2022-09-20T03:18:58.894Z,8.59
2022-09-20T03:22:13.089Z,8.52
2022-09-20T03:25:53.159Z,8.42
2022-09-20T03:29:03.587Z,8.40
2022-09-20T03:32:24.163Z,8.38
2022-09-20T03:35:40.603Z,8.35
2022-09-20T03:39:12.613Z,8.34
2022-09-20T03:42:19.485Z,8.27
2022-09-20T03:45:32.827Z,8.22
2022-09-20T03:48:54.094Z,8.17
2022-09-20T03:52:05.730Z,8.16
2022-09-20T03:55:38.647Z,8.09
2022-09-20T03:58:59.815Z,8.05
2022-09-20T04:02:30.174Z,8.03
2022-09-20T04:05:45.638Z,8.01
2022-09-20T04:09:09.402Z,7.99
2022-09-20T04:12:24.291Z,7.97
2022-09-20T04:15:38.808Z,7.96
2022-09-20T04:18:48.171Z,7.94
2022-09-20T04:21:57.003Z,7.94
2022-09-20T04:25:06.111Z,7.90
2022-09-20T04:28:17.551Z,7.89
2022-09-20T04:31:32.015Z,7.91
2022-09-20T04:34:57.475Z,7.90
2022-09-20T04:38:06.566Z,7.88
2022-09-20T04:41:41.857Z,7.86
2022-09-20T04:45:18.227Z,7.82
2022-09-20T04:48:46.140Z,7.78
2022-09-20T04:52:27.147Z,7.74
2022-09-20T04:55:58.889Z,7.69
2022-09-20T04:59:07.799Z,7.67
2022-09-20T05:02:42.710Z,7.62
2022-09-20T05:06:09.664Z,7.61
2022-09-20T05:09:37.714Z,7.60
2022-09-20T05:13:01.044Z,7.61
2022-09-20T05:16:07.241Z,7.62
2022-09-20T05:19:26.492Z,7.62
2022-09-20T05:22:58.375Z,7.64
2022-09-20T05:26:12.450Z,7.69
2022-09-20T05:29:22.798Z,7.74
2022-09-20T05:32:32.071Z,7.83
2022-09-20T05:35:45.864Z,7.93
2022-09-20T05:38:52.120Z,8.07
2022-09-20T05:41:59.136Z,8.20
2022-09-20T05:45:17.594Z,8.31
2022-09-20T05:48:27.696Z,8.46
2022-09-20T05:51:44.789Z,8.55
2022-09-20T05:55:07.789Z,8.65
2022-09-20T05:58:29.718Z,8.73
2022-09-20T06:01:35.337Z,8.86
2022-09-20T06:04:46.760Z,8.99
2022-09-20T06:08:08.569Z,9.13
2022-09-20T06:11:24.585Z,9.31
2022-09-20T06:14:39.941Z,9.41
2022-09-20T06:17:50.845Z,9.60
2022-09-20T06:21:02.641Z,9.76
2022-09-20T06:24:21.886Z,9.89
2022-09-20T06:27:28.910Z,9.96
2022-09-20T06:30:36.889Z,10.09
2022-09-20T06:33:46.211Z,10.20
2022-09-20T06:37:13.572Z,10.27
2022-09-20T06:40:51.057Z,10.37
2022-09-20T06:43:54.953Z,10.49
2022-09-20T06:46:58.188Z,10.52
2022-09-20T06:50:01.324Z,10.54
2022-09-20T06:53:04.588Z,10.59
2022-09-20T06:56:10.561Z,10.53
2022-09-20T06:59:15.602Z,10.50
2022-09-20T07:02:18.297Z,10.59
2022-09-20T07:05:21.971Z,10.64
2022-09-20T07:08:24.619Z,10.69
2022-09-20T07:11:29.890Z,10.76
2022-09-20T07:14:32.522Z,10.87
2022-09-20T07:17:35.721Z,10.95
2022-09-20T07:20:38.403Z,11.00
2022-09-20T07:23:41.309Z,11.00
2022-09-20T07:26:58.041Z,11.04
2022-09-20T07:30:02.665Z,11.09
2022-09-20T07:33:05.447Z,11.13
2022-09-20T07:36:08.851Z,11.16
2022-09-20T07:39:11.607Z,11.15
2022-09-20T07:42:15.625Z,11.23
2022-09-20T07:45:18.460Z,11.38
2022-09-20T07:48:21.508Z,11.57
2022-09-20T07:51:24.321Z,11.79
2022-09-20T07:54:28.392Z,12.10
2022-09-20T07:57:37.197Z,12.37
2022-09-20T08:00:40.180Z,12.42
2022-09-20T08:03:43.315Z,12.46
2022-09-20T08:06:46.740Z,12.41
2022-09-20T08:09:49.405Z,12.43
2022-09-20T08:16:17.123Z,12.77
2022-09-20T08:19:21.798Z,13.01
2022-09-20T08:22:24.694Z,13.11
2022-09-20T08:25:27.510Z,13.26
2022-09-20T08:28:32.467Z,13.47
2022-09-20T08:31:38.699Z,13.82
2022-09-20T08:34:41.357Z,14.08
2022-09-20T08:37:45.672Z,14.19
2022-09-20T08:40:49.496Z,14.12
2022-09-20T08:43:56.979Z,13.97
2022-09-20T08:47:07.503Z,13.81
2022-09-20T08:50:17.633Z,13.72
2022-09-20T08:53:21.610Z,13.74
2022-09-20T08:56:28.401Z,13.94
2022-09-20T08:59:33.068Z,14.04
2022-09-20T09:02:35.772Z,14.11
2022-09-20T09:05:42.702Z,14.27
2022-09-20T09:08:49.195Z,14.04
2022-09-20T09:11:53.228Z,13.73
2022-09-20T09:15:02.087Z,13.73
2022-09-20T09:18:10.391Z,13.36
2022-09-20T09:21:20.626Z,13.26
2022-09-20T09:24:25.693Z,13.27
2022-09-20T09:27:28.486Z,13.58
2022-09-20T09:30:34.801Z,13.84
2022-09-20T09:33:45.280Z,13.93
2022-09-20T09:36:47.883Z,13.98
2022-09-20T09:40:07.726Z,14.15
2022-09-20T09:43:21.421Z,14.15
2022-09-20T09:46:27.270Z,14.30
2022-09-20T09:49:34.925Z,14.51
2022-09-20T09:52:37.826Z,14.70
2022-09-20T09:55:56.427Z,14.81
2022-09-20T09:59:22.323Z,14.84
2022-09-20T10:03:03.240Z,14.99
2022-09-20T10:06:16.818Z,15.09
2022-09-20T10:09:43.682Z,15.15
2022-09-20T10:12:57.623Z,15.17
2022-09-20T10:16:09.055Z,15.16
2022-09-20T10:19:23.688Z,15.23
2022-09-20T10:22:37.032Z,15.22
2022-09-20T10:25:45.674Z,15.15
2022-09-20T10:29:00.079Z,15.12
2022-09-20T10:32:16.980Z,15.09
2022-09-20T10:35:38.054Z,15.20
2022-09-20T10:38:50.059Z,15.34
2022-09-20T10:42:20.436Z,15.42
2022-09-20T10:45:59.555Z,15.56
2022-09-20T10:49:23.884Z,15.53
2022-09-20T10:52:43.881Z,15.72
2022-09-20T10:55:52.973Z,16.03
2022-09-20T10:59:14.375Z,16.28
2022-09-20T11:02:42.752Z,16.49
2022-09-20T11:06:01.551Z,16.71
2022-09-20T11:09:13.904Z,16.94
2022-09-20T11:12:25.052Z,16.38
2022-09-20T11:15:34.397Z,16.23
2022-09-20T11:18:40.615Z,15.95
2022-09-20T11:21:49.988Z,15.81
2022-09-20T11:25:02.933Z,15.28
2022-09-20T11:28:13.857Z,14.05
2022-09-20T11:31:24.499Z,13.05
2022-09-20T11:34:31.231Z,12.63
2022-09-20T11:37:39.828Z,12.38
2022-09-20T11:40:49.317Z,12.23
2022-09-20T11:43:53.183Z,12.19
2022-09-20T11:47:00.682Z,12.36
2022-09-20T11:50:34.649Z,12.46
2022-09-20T11:54:12.903Z,12.59
2022-09-20T11:57:17.976Z,12.90
2022-09-20T12:00:30.960Z,13.08
2022-09-20T12:03:37.544Z,13.32
2022-09-20T12:06:42.886Z,13.59
2022-09-20T12:09:52.709Z,13.46
2022-09-20T12:13:02.007Z,13.78
2022-09-20T12:16:07.794Z,14.00
2022-09-20T12:19:14.004Z,14.33
2022-09-20T12:22:28.055Z,14.33
2022-09-20T12:25:37.370Z,14.44
2022-09-20T12:28:43.520Z,14.56
2022-09-20T12:31:48.989Z,14.49
2022-09-20T12:34:52.673Z,14.40
2022-09-20T12:37:55.724Z,14.36
2022-09-20T12:41:00.575Z,14.36
2022-09-20T12:44:25.474Z,14.52
2022-09-20T12:47:31.607Z,14.46
2022-09-20T12:50:52.087Z,14.42
2022-09-20T12:54:05.621Z,14.52
2022-09-20T12:57:19.123Z,14.81
2022-09-20T13:00:36.523Z,15.09
2022-09-20T13:03:40.845Z,15.37
2022-09-20T13:06:45.154Z,15.76
2022-09-20T13:09:49.368Z,16.24
2022-09-20T13:12:58.070Z,16.65
2022-09-20T13:16:05.746Z,16.89
2022-09-20T13:19:16.258Z,17.09
2022-09-20T13:22:24.800Z,17.21
2022-09-20T13:25:28.568Z,17.26
2022-09-20T13:28:35.975Z,17.21
2022-09-20T13:31:40.189Z,17.10
2022-09-20T13:34:43.157Z,16.97
2022-09-20T13:37:54.107Z,16.79
2022-09-20T13:41:04.748Z,16.91
2022-09-20T13:44:07.779Z,16.81
2022-09-20T13:47:26.523Z,16.69
2022-09-20T13:50:32.519Z,16.48
2022-09-20T13:53:43.259Z,16.57
2022-09-20T13:56:46.159Z,16.69
2022-09-20T13:59:49.529Z,16.77
2022-09-20T14:02:55.880Z,16.81
2022-09-20T14:06:01.841Z,16.64
2022-09-20T14:09:11.194Z,16.42
2022-09-20T14:12:14.961Z,16.27
2022-09-20T14:15:18.029Z,16.02
2022-09-20T14:18:23.382Z,15.83
2022-09-20T14:21:28.346Z,15.73
2022-09-20T14:24:35.492Z,15.55
2022-09-20T14:27:39.123Z,15.49
2022-09-20T14:30:41.767Z,15.37
2022-09-20T14:33:51.736Z,15.31
2022-09-20T14:37:06.903Z,15.36
2022-09-20T14:40:23.604Z,15.13
2022-09-20T14:43:31.520Z,15.13
2022-09-20T14:46:36.610Z,15.15
2022-09-20T14:49:43.859Z,15.08
2022-09-20T14:52:46.522Z,14.91
2022-09-20T14:55:58.227Z,14.88
2022-09-20T14:59:06.842Z,14.74
2022-09-20T15:02:15.780Z,14.68
2022-09-20T15:05:25.892Z,14.75
2022-09-20T15:08:29.035Z,14.67
2022-09-20T15:11:31.726Z,14.71
2022-09-20T15:14:37.952Z,14.64
2022-09-20T15:17:40.862Z,14.41
2022-09-20T15:20:44.884Z,14.35
2022-09-20T15:23:47.496Z,14.28
2022-09-20T15:26:50.427Z,14.20
2022-09-20T15:29:53.227Z,14.05
2022-09-20T15:33:00.852Z,13.96
2022-09-20T15:36:07.697Z,13.85
2022-09-20T15:39:10.335Z,13.87
2022-09-20T15:42:13.260Z,13.92
2022-09-20T15:45:16.084Z,13.81
2022-09-20T15:48:20.887Z,13.90
2022-09-20T15:51:25.250Z,14.07
2022-09-20T15:54:28.002Z,14.16
2022-09-20T15:57:32.723Z,14.24
2022-09-20T16:00:35.815Z,14.31
2022-09-20T16:03:39.039Z,14.38
2022-09-20T16:06:45.589Z,14.44
2022-09-20T16:09:48.270Z,14.39
2022-09-20T16:12:50.904Z,14.42
2022-09-20T16:15:56.540Z,14.30
2022-09-20T16:19:17.479Z,14.21
2022-09-20T16:22:22.314Z,14.13
2022-09-20T16:25:24.980Z,14.08
2022-09-20T16:28:28.190Z,13.93
2022-09-20T16:31:34.811Z,13.85
2022-09-20T16:34:38.101Z,13.71
2022-09-20T16:37:44.616Z,13.67
2022-09-20T16:40:51.428Z,13.37
2022-09-20T16:43:54.843Z,13.32
2022-09-20T16:46:57.496Z,13.27
2022-09-20T16:50:00.497Z,13.16
2022-09-20T16:53:05.066Z,13.08
2022-09-20T16:56:07.915Z,13.02
2022-09-20T16:59:11.046Z,12.96
2022-09-20T17:02:14.085Z,12.87
2022-09-20T17:05:16.976Z,12.82
2022-09-20T17:08:21.088Z,12.72
2022-09-20T17:11:25.860Z,12.63
2022-09-20T17:14:28.952Z,12.52
2022-09-20T17:17:31.699Z,12.43
2022-09-20T17:20:35.351Z,12.43
2022-09-20T17:23:39.362Z,12.34
2022-09-20T17:26:45.264Z,12.30
2022-09-20T17:29:47.882Z,12.28
2022-09-20T17:32:51.748Z,12.23
2022-09-20T17:35:54.642Z,12.11
2022-09-20T17:39:03.930Z,11.98
2022-09-20T17:42:07.781Z,12.05
2022-09-20T17:45:10.997Z,11.98
2022-09-20T17:48:13.671Z,12.06
2022-09-20T17:51:18.179Z,12.08
2022-09-20T17:54:24.131Z,12.07
2022-09-20T17:57:27.618Z,12.18
2022-09-20T18:00:30.441Z,12.15
2022-09-20T18:03:37.405Z,12.14
2022-09-20T18:06:42.285Z,12.24
2022-09-20T18:09:46.302Z,12.29
2022-09-20T18:12:49.986Z,12.27
2022-09-20T18:15:52.827Z,12.17
2022-09-20T18:18:55.727Z,12.16
2022-09-20T18:21:58.598Z,12.19
2022-09-20T18:25:02.669Z,12.40
2022-09-20T18:28:05.297Z,12.51
2022-09-20T18:31:09.455Z,12.50
2022-09-20T18:34:17.676Z,12.47
2022-09-20T18:37:20.391Z,12.53
2022-09-20T18:40:24.603Z,12.48
2022-09-20T18:43:30.000Z,12.44
2022-09-20T18:46:34.344Z,12.43
2022-09-20T18:49:37.150Z,12.41
2022-09-20T18:52:39.864Z,12.40
2022-09-20T18:55:44.902Z,12.42
2022-09-20T18:58:48.395Z,12.43
2022-09-20T19:02:08.183Z,12.41
2022-09-20T19:05:19.215Z,12.44
2022-09-20T19:08:34.131Z,12.35
2022-09-20T19:11:43.477Z,12.32
2022-09-20T19:15:01.371Z,12.33
2022-09-20T19:18:21.569Z,12.33
2022-09-20T19:21:38.405Z,12.31
2022-09-20T19:25:09.217Z,12.31
2022-09-20T19:28:15.967Z,12.33
2022-09-20T19:31:24.692Z,12.27
2022-09-20T19:34:29.545Z,12.26
2022-09-20T19:37:38.978Z,12.19
2022-09-20T19:40:51.031Z,12.17
2022-09-20T19:44:10.242Z,12.17
2022-09-20T19:47:22.332Z,12.15
2022-09-20T19:50:33.547Z,12.09
2022-09-20T19:53:37.109Z,12.05
2022-09-20T19:56:54.391Z,11.94
2022-09-20T19:59:59.059Z,11.90
2022-09-20T20:03:02.820Z,11.87
2022-09-20T20:06:16.824Z,11.79
2022-09-20T20:09:28.718Z,11.78
2022-09-20T20:12:36.884Z,11.74
2022-09-20T20:15:50.556Z,11.67
2022-09-20T20:19:10.319Z,11.62
2022-09-20T20:22:28.379Z,11.61
2022-09-20T20:25:42.013Z,11.58
2022-09-20T20:28:45.348Z,11.50
2022-09-20T20:31:49.386Z,11.41
2022-09-20T20:34:52.075Z,11.36
2022-09-20T20:37:55.601Z,11.29
2022-09-20T20:41:04.635Z,11.24
2022-09-20T20:44:07.784Z,11.22
2022-09-20T20:47:11.992Z,11.16
2022-09-20T20:50:15.136Z,11.06
2022-09-20T20:53:18.271Z,11.00
2022-09-20T20:56:23.292Z,10.86
2022-09-20T20:59:26.540Z,10.85
2022-09-20T21:02:30.604Z,10.75
2022-09-20T21:05:33.660Z,10.66
2022-09-20T21:08:37.866Z,10.58
2022-09-20T21:11:44.200Z,10.53
2022-09-20T21:14:47.036Z,10.47
2022-09-20T21:17:53.669Z,10.42
2022-09-20T21:20:56.371Z,10.43
2022-09-20T21:24:01.468Z,10.44
2022-09-20T21:27:04.829Z,10.43
2022-09-20T21:30:09.052Z,10.39
2022-09-20T21:33:13.100Z,10.30
2022-09-20T21:36:18.011Z,10.21
2022-09-20T21:39:20.741Z,10.08
2022-09-20T21:42:23.768Z,9.99
2022-09-20T21:45:29.492Z,9.96
2022-09-20T21:48:34.164Z,9.88
2022-09-20T21:51:38.421Z,9.86
2022-09-20T21:54:41.097Z,9.77
2022-09-20T21:57:44.433Z,9.73
2022-09-20T22:00:57.087Z,9.66
2022-09-20T22:04:02.244Z,9.64
2022-09-20T22:07:05.569Z,9.61
2022-09-20T22:10:09.248Z,9.57
2022-09-20T22:13:12.096Z,9.53
2022-09-20T22:16:17.211Z,9.49
2022-09-20T22:19:21.934Z,9.48
2022-09-20T22:22:25.411Z,9.42
2022-09-20T22:25:29.870Z,9.37
2022-09-20T22:28:33.007Z,9.32
2022-09-20T22:31:37.160Z,9.28
2022-09-20T22:34:41.621Z,9.24
2022-09-20T22:37:44.702Z,9.23
2022-09-20T22:40:55.247Z,9.17
2022-09-20T22:43:58.496Z,9.15
2022-09-20T22:47:01.171Z,9.12
2022-09-20T22:50:06.837Z,9.07
2022-09-20T22:53:09.706Z,8.94
2022-09-20T22:56:14.752Z,8.97
2022-09-20T22:59:18.174Z,8.92
2022-09-20T23:02:21.271Z,8.92
2022-09-20T23:05:25.360Z,8.90
2022-09-20T23:08:28.518Z,8.85
2022-09-20T23:11:32.006Z,8.81
2022-09-20T23:14:34.723Z,8.79
2022-09-20T23:17:37.913Z,8.76
2022-09-20T23:20:41.918Z,8.72
2022-09-20T23:23:46.041Z,8.68
2022-09-20T23:26:49.492Z,8.62
2022-09-20T23:29:52.148Z,8.58
2022-09-20T23:32:55.048Z,8.56
2022-09-20T23:35:59.170Z,8.54
2022-09-20T23:39:02.507Z,8.49
2022-09-20T23:42:05.674Z,8.43
2022-09-20T23:45:10.189Z,8.37
2022-09-20T23:48:13.342Z,8.32
2022-09-20T23:51:19.362Z,8.28
2022-09-20T23:54:22.456Z,8.22
2022-09-20T23:57:25.114Z,8.17
